sensor_id;sensor_type;location;lat;lon;timestamp;pressure;altitude;pressure_sealevel;temperature;humidity
54306;BME280;66145;45.188;5.712;2022-12-29T00:02:16;99381.91;;;15.87;56.41
54306;BME280;66145;45.188;5.712;2022-12-29T00:04:42;99549.00;;;16.90;55.69
54306;BME280;66145;45.188;5.712;2022-12-29T00:07:07;99583.47;;;17.10;56.00
54306;BME280;66145;45.188;5.712;2022-12-29T00:09:34;99514.56;;;16.70;56.16
54306;BME280;66145;45.188;5.712;2022-12-29T00:12:00;99496.66;;;16.64;55.99
54306;BME280;66145;45.188;5.712;2022-12-29T00:14:26;99363.72;;;15.77;55.92
54306;BME280;66145;45.188;5.712;2022-12-29T00:17:09;99549.19;;;16.99;55.99
54306;BME280;66145;45.188;5.712;2022-12-29T00:19:35;99536.38;;;16.94;56.09
54306;BME280;66145;45.188;5.712;2022-12-29T00:22:19;99523.59;;;16.90;56.12
54306;BME280;66145;45.188;5.712;2022-12-29T00:25:03;99478.91;;;16.61;55.71
54306;BME280;66145;45.188;5.712;2022-12-29T00:27:47;99508.97;;;16.80;55.78
54306;BME280;66145;45.188;5.712;2022-12-29T00:30:31;99572.47;;;17.15;56.06
54306;BME280;66145;45.188;5.712;2022-12-29T00:33:17;99496.72;;;16.78;55.82
54306;BME280;66145;45.188;5.712;2022-12-29T00:36:13;99354.00;;;15.90;55.77
54306;BME280;66145;45.188;5.712;2022-12-29T00:38:45;99562.78;;;17.23;55.83
54306;BME280;66145;45.188;5.712;2022-12-29T00:41:30;99523.97;;;17.02;55.80
54306;BME280;66145;45.188;5.712;2022-12-29T00:44:14;99552.22;;;17.16;55.79
54306;BME280;66145;45.188;5.712;2022-12-29T00:46:41;99502.94;;;16.83;55.85
54306;BME280;66145;45.188;5.712;2022-12-29T00:49:08;99490.13;;;16.79;56.06
54306;BME280;66145;45.188;5.712;2022-12-29T00:51:54;99560.84;;;17.24;55.87
54306;BME280;66145;45.188;5.712;2022-12-29T00:54:20;99546.44;;;17.18;55.96
54306;BME280;66145;45.188;5.712;2022-12-29T00:56:47;99558.63;;;17.26;55.71
54306;BME280;66145;45.188;5.712;2022-12-29T00:59:13;99352.63;;;15.93;56.12
54306;BME280;66145;45.188;5.712;2022-12-29T01:01:38;99513.06;;;17.02;55.98
54306;BME280;66145;45.188;5.712;2022-12-29T01:04:04;99500.84;;;16.94;55.95
54306;BME280;66145;45.188;5.712;2022-12-29T01:06:30;99537.94;;;17.20;55.93
54306;BME280;66145;45.188;5.712;2022-12-29T01:08:55;99516.91;;;17.01;56.17
54306;BME280;66145;45.188;5.712;2022-12-29T01:11:40;99435.94;;;16.48;56.18
54306;BME280;66145;45.188;5.712;2022-12-29T01:14:06;99521.56;;;17.00;56.09
54306;BME280;66145;45.188;5.712;2022-12-29T01:16:32;99537.78;;;17.11;56.20
54306;BME280;66145;45.188;5.712;2022-12-29T01:18:57;99569.56;;;17.26;55.86
54306;BME280;66145;45.188;5.712;2022-12-29T01:21:22;99459.66;;;16.71;56.04
54306;BME280;66145;45.188;5.712;2022-12-29T01:23:48;99474.38;;;16.76;56.18
54306;BME280;66145;45.188;5.712;2022-12-29T01:26:15;99518.91;;;16.95;56.18
54306;BME280;66145;45.188;5.712;2022-12-29T01:28:41;99535.72;;;17.22;55.95
54306;BME280;66145;45.188;5.712;2022-12-29T01:31:08;99482.56;;;16.76;55.88
54306;BME280;66145;45.188;5.712;2022-12-29T01:33:34;99540.16;;;17.17;55.83
54306;BME280;66145;45.188;5.712;2022-12-29T01:36:01;99487.78;;;16.91;56.05
54306;BME280;66145;45.188;5.712;2022-12-29T01:38:26;99513.44;;;17.14;56.24
54306;BME280;66145;45.188;5.712;2022-12-29T01:40:52;99487.66;;;16.82;55.90
54306;BME280;66145;45.188;5.712;2022-12-29T01:43:17;99537.41;;;17.17;56.14
54306;BME280;66145;45.188;5.712;2022-12-29T01:45:47;99510.94;;;16.99;56.12
54306;BME280;66145;45.188;5.712;2022-12-29T01:48:13;99477.69;;;16.72;56.12
54306;BME280;66145;45.188;5.712;2022-12-29T01:50:45;99429.91;;;16.51;56.15
54306;BME280;66145;45.188;5.712;2022-12-29T01:53:27;99530.34;;;16.97;56.30
54306;BME280;66145;45.188;5.712;2022-12-29T01:55:57;99440.56;;;16.52;56.09
54306;BME280;66145;45.188;5.712;2022-12-29T01:58:29;99387.16;;;16.22;56.21
54306;BME280;66145;45.188;5.712;2022-12-29T02:00:55;99500.03;;;16.94;56.26
54306;BME280;66145;45.188;5.712;2022-12-29T02:03:22;99540.69;;;17.20;56.30
54306;BME280;66145;45.188;5.712;2022-12-29T02:06:02;99362.50;;;15.89;56.16
54306;BME280;66145;45.188;5.712;2022-12-29T02:08:30;99526.81;;;16.97;56.04
54306;BME280;66145;45.188;5.712;2022-12-29T02:10:56;99475.00;;;16.67;56.10
54306;BME280;66145;45.188;5.712;2022-12-29T02:13:24;99557.47;;;17.32;56.08
54306;BME280;66145;45.188;5.712;2022-12-29T02:15:53;99559.06;;;17.33;56.37
54306;BME280;66145;45.188;5.712;2022-12-29T02:24:14;99568.88;;;17.34;56.19
54306;BME280;66145;45.188;5.712;2022-12-29T02:35:54;99465.84;;;16.77;56.23
54306;BME280;66145;45.188;5.712;2022-12-29T02:41:58;99509.84;;;17.33;56.31
54306;BME280;66145;45.188;5.712;2022-12-29T02:47:19;99432.78;;;16.79;56.09
54306;BME280;66145;45.188;5.712;2022-12-29T02:50:08;99514.50;;;17.32;56.00
54306;BME280;66145;45.188;5.712;2022-12-29T02:52:43;99423.94;;;16.68;56.02
54306;BME280;66145;45.188;5.712;2022-12-29T02:55:11;99510.66;;;17.33;56.30
54306;BME280;66145;45.188;5.712;2022-12-29T02:57:37;99398.00;;;16.65;56.05
54306;BME280;66145;45.188;5.712;2022-12-29T03:00:11;99506.00;;;17.34;56.29
54306;BME280;66145;45.188;5.712;2022-12-29T03:03:00;99509.25;;;17.36;56.15
54306;BME280;66145;45.188;5.712;2022-12-29T03:08:20;99497.22;;;17.37;56.20
54306;BME280;66145;45.188;5.712;2022-12-29T03:10:56;99442.16;;;16.92;55.91
54306;BME280;66145;45.188;5.712;2022-12-29T03:16:26;99452.72;;;16.98;56.23
54306;BME280;66145;45.188;5.712;2022-12-29T03:19:04;99497.00;;;17.33;56.29
54306;BME280;66145;45.188;5.712;2022-12-29T03:21:39;99407.31;;;16.64;56.17
54306;BME280;66145;45.188;5.712;2022-12-29T03:24:28;99487.34;;;17.22;56.10
54306;BME280;66145;45.188;5.712;2022-12-29T03:26:56;99429.00;;;16.94;56.24
54306;BME280;66145;45.188;5.712;2022-12-29T03:29:24;99408.44;;;16.82;56.01
54306;BME280;66145;45.188;5.712;2022-12-29T03:31:51;99429.75;;;16.99;56.00
54306;BME280;66145;45.188;5.712;2022-12-29T03:34:20;99400.50;;;16.81;56.15
54306;BME280;66145;45.188;5.712;2022-12-29T03:37:00;99392.91;;;16.78;56.15
54306;BME280;66145;45.188;5.712;2022-12-29T03:39:28;99455.91;;;17.06;56.17
54306;BME280;66145;45.188;5.712;2022-12-29T03:42:04;99416.09;;;16.80;56.13
54306;BME280;66145;45.188;5.712;2022-12-29T03:44:35;99490.50;;;17.29;56.26
54306;BME280;66145;45.188;5.712;2022-12-29T03:47:01;99391.44;;;16.66;56.28
54306;BME280;66145;45.188;5.712;2022-12-29T03:49:27;99278.72;;;15.89;56.36
54306;BME280;66145;45.188;5.712;2022-12-29T03:51:52;99475.75;;;17.11;56.30
54306;BME280;66145;45.188;5.712;2022-12-29T03:54:18;99506.25;;;17.38;56.45
54306;BME280;66145;45.188;5.712;2022-12-29T03:56:43;99429.38;;;16.87;56.60
54306;BME280;66145;45.188;5.712;2022-12-29T03:59:08;99385.47;;;16.64;56.44
54306;BME280;66145;45.188;5.712;2022-12-29T04:01:34;99399.63;;;16.66;56.40
54306;BME280;66145;45.188;5.712;2022-12-29T04:03:59;99505.41;;;17.37;56.61
54306;BME280;66145;45.188;5.712;2022-12-29T04:06:24;99518.28;;;17.37;56.31
54306;BME280;66145;45.188;5.712;2022-12-29T04:08:50;99512.81;;;17.37;56.24
54306;BME280;66145;45.188;5.712;2022-12-29T04:11:15;99399.28;;;16.54;56.54
54306;BME280;66145;45.188;5.712;2022-12-29T04:13:40;99514.91;;;17.26;56.23
54306;BME280;66145;45.188;5.712;2022-12-29T04:16:07;99454.38;;;16.94;56.35
54306;BME280;66145;45.188;5.712;2022-12-29T04:18:32;99392.94;;;16.58;56.56
54306;BME280;66145;45.188;5.712;2022-12-29T04:20:57;99509.13;;;17.27;56.50
54306;BME280;66145;45.188;5.712;2022-12-29T04:23:27;99459.28;;;16.97;56.15
54306;BME280;66145;45.188;5.712;2022-12-29T04:25:53;99520.16;;;17.22;56.35
54306;BME280;66145;45.188;5.712;2022-12-29T04:28:18;99458.13;;;16.84;56.18
54306;BME280;66145;45.188;5.712;2022-12-29T04:30:44;99501.88;;;17.17;56.40
54306;BME280;66145;45.188;5.712;2022-12-29T04:33:10;99521.16;;;17.26;56.13
54306;BME280;66145;45.188;5.712;2022-12-29T04:35:36;99421.63;;;16.75;56.07
54306;BME280;66145;45.188;5.712;2022-12-29T04:38:01;99510.75;;;17.28;56.35
54306;BME280;66145;45.188;5.712;2022-12-29T04:40:27;99513.41;;;17.33;56.29
54306;BME280;66145;45.188;5.712;2022-12-29T04:42:52;99488.31;;;17.12;56.13
54306;BME280;66145;45.188;5.712;2022-12-29T04:45:18;99488.25;;;16.98;56.30
54306;BME280;66145;45.188;5.712;2022-12-29T04:47:43;99500.78;;;17.18;56.22
54306;BME280;66145;45.188;5.712;2022-12-29T04:50:08;99396.09;;;16.47;56.21
54306;BME280;66145;45.188;5.712;2022-12-29T04:52:34;99423.50;;;16.61;56.14
54306;BME280;66145;45.188;5.712;2022-12-29T04:55:00;99528.97;;;17.33;56.30
54306;BME280;66145;45.188;5.712;2022-12-29T04:57:25;99527.38;;;17.32;56.30
54306;BME280;66145;45.188;5.712;2022-12-29T04:59:51;99398.47;;;16.53;56.20
54306;BME280;66145;45.188;5.712;2022-12-29T05:02:17;99415.72;;;16.49;56.40
54306;BME280;66145;45.188;5.712;2022-12-29T05:04:42;99508.34;;;17.08;56.46
54306;BME280;66145;45.188;5.712;2022-12-29T05:07:08;99406.59;;;16.58;56.34
54306;BME280;66145;45.188;5.712;2022-12-29T05:09:33;99457.22;;;16.89;56.22
54306;BME280;66145;45.188;5.712;2022-12-29T05:11:58;99481.03;;;17.08;56.25
54306;BME280;66145;45.188;5.712;2022-12-29T05:14:24;99512.22;;;17.21;56.19
54306;BME280;66145;45.188;5.712;2022-12-29T05:16:49;99513.28;;;17.25;56.33
54306;BME280;66145;45.188;5.712;2022-12-29T05:19:15;99486.38;;;17.13;56.21
54306;BME280;66145;45.188;5.712;2022-12-29T05:21:41;99472.16;;;16.97;56.49
54306;BME280;66145;45.188;5.712;2022-12-29T05:24:07;99507.97;;;17.14;56.34
54306;BME280;66145;45.188;5.712;2022-12-29T05:26:32;99475.41;;;16.99;56.21
54306;BME280;66145;45.188;5.712;2022-12-29T05:28:57;99484.34;;;17.05;56.42
54306;BME280;66145;45.188;5.712;2022-12-29T05:31:23;99504.34;;;17.19;56.44
54306;BME280;66145;45.188;5.712;2022-12-29T05:33:48;99428.13;;;16.79;56.38
54306;BME280;66145;45.188;5.712;2022-12-29T05:36:14;99530.13;;;17.32;56.34
54306;BME280;66145;45.188;5.712;2022-12-29T05:38:39;99503.97;;;17.26;56.46
54306;BME280;66145;45.188;5.712;2022-12-29T05:41:05;99513.56;;;17.23;56.35
54306;BME280;66145;45.188;5.712;2022-12-29T05:43:30;99492.88;;;17.17;55.92
54306;BME280;66145;45.188;5.712;2022-12-29T05:45:56;99488.38;;;17.07;56.37
54306;BME280;66145;45.188;5.712;2022-12-29T05:48:22;99409.03;;;16.60;56.23
54306;BME280;66145;45.188;5.712;2022-12-29T05:50:48;99495.84;;;17.21;56.35
54306;BME280;66145;45.188;5.712;2022-12-29T05:53:14;99466.16;;;17.14;56.22
54306;BME280;66145;45.188;5.712;2022-12-29T05:55:40;99424.88;;;16.77;56.30
54306;BME280;66145;45.188;5.712;2022-12-29T05:58:05;99491.47;;;17.20;56.28
54306;BME280;66145;45.188;5.712;2022-12-29T06:00:31;99477.09;;;16.95;56.07
54306;BME280;66145;45.188;5.712;2022-12-29T06:02:56;99397.28;;;16.60;56.31
54306;BME280;66145;45.188;5.712;2022-12-29T06:05:21;99458.91;;;16.85;56.12
54306;BME280;66145;45.188;5.712;2022-12-29T06:07:47;99468.22;;;17.03;56.59
54306;BME280;66145;45.188;5.712;2022-12-29T06:10:12;99471.53;;;16.81;56.24
54306;BME280;66145;45.188;5.712;2022-12-29T06:12:38;99475.09;;;16.81;56.76
54306;BME280;66145;45.188;5.712;2022-12-29T06:15:03;99480.91;;;16.94;55.66
54306;BME280;66145;45.188;5.712;2022-12-29T06:17:29;99477.25;;;17.03;55.57
54306;BME280;66145;45.188;5.712;2022-12-29T06:19:54;99434.50;;;16.75;55.52
54306;BME280;66145;45.188;5.712;2022-12-29T06:22:20;99451.69;;;16.75;55.50
54306;BME280;66145;45.188;5.712;2022-12-29T06:24:45;99489.84;;;17.18;55.61
54306;BME280;66145;45.188;5.712;2022-12-29T06:27:11;99479.16;;;17.03;55.90
54306;BME280;66145;45.188;5.712;2022-12-29T06:29:36;99472.72;;;16.94;55.73
54306;BME280;66145;45.188;5.712;2022-12-29T06:32:03;99498.44;;;17.12;55.83
54306;BME280;66145;45.188;5.712;2022-12-29T06:34:28;99526.56;;;17.31;55.89
54306;BME280;66145;45.188;5.712;2022-12-29T06:36:54;99476.53;;;16.98;56.00
54306;BME280;66145;45.188;5.712;2022-12-29T06:39:19;99501.47;;;17.10;56.10
54306;BME280;66145;45.188;5.712;2022-12-29T06:41:44;99399.34;;;16.49;55.82
54306;BME280;66145;45.188;5.712;2022-12-29T06:44:10;99384.81;;;16.34;56.25
54306;BME280;66145;45.188;5.712;2022-12-29T06:46:35;99491.50;;;17.00;56.00
54306;BME280;66145;45.188;5.712;2022-12-29T06:49:01;99515.88;;;17.16;56.03
54306;BME280;66145;45.188;5.712;2022-12-29T06:51:26;99477.63;;;16.97;56.06
54306;BME280;66145;45.188;5.712;2022-12-29T06:53:51;99478.72;;;16.96;56.07
54306;BME280;66145;45.188;5.712;2022-12-29T06:56:17;99444.00;;;16.77;56.02
54306;BME280;66145;45.188;5.712;2022-12-29T06:58:42;99435.34;;;16.70;56.09
54306;BME280;66145;45.188;5.712;2022-12-29T07:01:07;99520.81;;;17.14;56.15
54306;BME280;66145;45.188;5.712;2022-12-29T07:03:33;99511.88;;;17.08;56.51
54306;BME280;66145;45.188;5.712;2022-12-29T07:05:58;99513.28;;;17.06;56.32
54306;BME280;66145;45.188;5.712;2022-12-29T07:08:24;99533.66;;;17.32;56.37
54306;BME280;66145;45.188;5.712;2022-12-29T07:10:49;99509.28;;;17.17;56.52
54306;BME280;66145;45.188;5.712;2022-12-29T07:13:15;99513.44;;;17.14;56.29
54306;BME280;66145;45.188;5.712;2022-12-29T07:15:40;99495.03;;;17.01;56.48
54306;BME280;66145;45.188;5.712;2022-12-29T07:18:06;99541.53;;;17.34;56.47
54306;BME280;66145;45.188;5.712;2022-12-29T07:20:32;99455.09;;;16.67;56.15
54306;BME280;66145;45.188;5.712;2022-12-29T07:22:57;99534.94;;;17.21;56.49
54306;BME280;66145;45.188;5.712;2022-12-29T07:25:23;99513.81;;;17.08;56.55
54306;BME280;66145;45.188;5.712;2022-12-29T07:27:49;99450.44;;;16.67;56.47
54306;BME280;66145;45.188;5.712;2022-12-29T07:30:14;99502.06;;;17.07;56.43
54306;BME280;66145;45.188;5.712;2022-12-29T07:32:40;99524.28;;;17.20;56.54
54306;BME280;66145;45.188;5.712;2022-12-29T07:35:06;99455.59;;;16.69;56.53
54306;BME280;66145;45.188;5.712;2022-12-29T07:37:31;99493.75;;;16.93;56.54
54306;BME280;66145;45.188;5.712;2022-12-29T07:39:57;99488.06;;;16.90;56.85
54306;BME280;66145;45.188;5.712;2022-12-29T07:42:22;99505.97;;;17.01;56.66
54306;BME280;66145;45.188;5.712;2022-12-29T07:44:48;99526.88;;;17.11;56.71
54306;BME280;66145;45.188;5.712;2022-12-29T07:47:13;99511.88;;;17.08;56.55
54306;BME280;66145;45.188;5.712;2022-12-29T07:49:38;99326.25;;;15.88;56.76
54306;BME280;66145;45.188;5.712;2022-12-29T07:52:04;99549.75;;;17.34;56.56
54306;BME280;66145;45.188;5.712;2022-12-29T07:54:29;99524.13;;;16.92;56.79
54306;BME280;66145;45.188;5.712;2022-12-29T07:56:54;99512.00;;;16.79;56.57
54306;BME280;66145;45.188;5.712;2022-12-29T07:59:20;99493.75;;;16.55;56.75
54306;BME280;66145;45.188;5.712;2022-12-29T08:01:45;99499.78;;;16.52;56.73
54306;BME280;66145;45.188;5.712;2022-12-29T08:04:11;99513.44;;;16.52;56.68
54306;BME280;66145;45.188;5.712;2022-12-29T08:06:36;99461.97;;;16.21;56.71
54306;BME280;66145;45.188;5.712;2022-12-29T08:09:03;99531.56;;;16.67;56.00
54306;BME280;66145;45.188;5.712;2022-12-29T08:11:28;99434.13;;;16.00;56.12
54306;BME280;66145;45.188;5.712;2022-12-29T08:13:54;99522.16;;;16.54;56.30
54306;BME280;66145;45.188;5.712;2022-12-29T08:16:19;99326.47;;;15.19;56.05
54306;BME280;66145;45.188;5.712;2022-12-29T08:18:45;99504.56;;;16.41;56.23
54306;BME280;66145;45.188;5.712;2022-12-29T08:21:10;99512.13;;;16.49;55.93
54306;BME280;66145;45.188;5.712;2022-12-29T08:23:36;99517.13;;;16.61;56.10
54306;BME280;66145;45.188;5.712;2022-12-29T08:26:04;99478.22;;;16.31;55.64
54306;BME280;66145;45.188;5.712;2022-12-29T08:28:30;99512.66;;;16.51;56.32
54306;BME280;66145;45.188;5.712;2022-12-29T08:31:00;99475.56;;;16.26;55.97
54306;BME280;66145;45.188;5.712;2022-12-29T08:33:26;99427.84;;;15.99;56.16
54306;BME280;66145;45.188;5.712;2022-12-29T08:35:52;99491.41;;;16.24;55.65
54306;BME280;66145;45.188;5.712;2022-12-29T08:38:17;99205.50;;;14.61;55.23
54306;BME280;66145;45.188;5.712;2022-12-29T08:40:43;99477.09;;;16.32;55.62
54306;BME280;66145;45.188;5.712;2022-12-29T08:43:09;99340.31;;;15.47;55.20
54306;BME280;66145;45.188;5.712;2022-12-29T08:45:34;99395.81;;;15.80;55.29
54306;BME280;66145;45.188;5.712;2022-12-29T08:48:00;99273.28;;;14.97;55.65
54306;BME280;66145;45.188;5.712;2022-12-29T08:50:26;99477.25;;;16.22;55.20
54306;BME280;66145;45.188;5.712;2022-12-29T08:52:51;99382.09;;;15.66;55.02
54306;BME280;66145;45.188;5.712;2022-12-29T08:55:17;99440.84;;;16.07;54.94
54306;BME280;66145;45.188;5.712;2022-12-29T08:57:42;99437.91;;;16.04;55.48
54306;BME280;66145;45.188;5.712;2022-12-29T09:00:08;99512.66;;;16.51;55.32
54306;BME280;66145;45.188;5.712;2022-12-29T09:02:33;99462.75;;;16.21;55.26
54306;BME280;66145;45.188;5.712;2022-12-29T09:04:59;99454.94;;;16.15;55.10
54306;BME280;66145;45.188;5.712;2022-12-29T09:07:25;99352.84;;;15.48;55.58
54306;BME280;66145;45.188;5.712;2022-12-29T09:09:50;99450.31;;;16.15;55.10
54306;BME280;66145;45.188;5.712;2022-12-29T09:12:17;99453.47;;;16.22;55.51
54306;BME280;66145;45.188;5.712;2022-12-29T09:14:42;99465.16;;;16.28;54.96
54306;BME280;66145;45.188;5.712;2022-12-29T09:17:09;99394.94;;;15.90;55.23
54306;BME280;66145;45.188;5.712;2022-12-29T09:19:53;99501.78;;;16.46;55.32
54306;BME280;66145;45.188;5.712;2022-12-29T09:22:19;99491.97;;;16.45;55.36
54306;BME280;66145;45.188;5.712;2022-12-29T09:24:44;99249.63;;;14.93;54.68
54306;BME280;66145;45.188;5.712;2022-12-29T09:27:09;99285.41;;;15.10;55.18
54306;BME280;66145;45.188;5.712;2022-12-29T09:29:35;99389.63;;;15.75;55.06
54306;BME280;66145;45.188;5.712;2022-12-29T09:32:00;99431.97;;;15.96;54.96
54306;BME280;66145;45.188;5.712;2022-12-29T09:34:25;99444.94;;;16.05;55.20
54306;BME280;66145;45.188;5.712;2022-12-29T09:36:51;99195.59;;;14.46;54.71
54306;BME280;66145;45.188;5.712;2022-12-29T09:39:16;99367.13;;;15.64;54.59
54306;BME280;66145;45.188;5.712;2022-12-29T09:41:43;99491.28;;;16.53;54.70
54306;BME280;66145;45.188;5.712;2022-12-29T09:46:59;99483.09;;;16.53;54.98
54306;BME280;66145;45.188;5.712;2022-12-29T09:49:45;99468.81;;;16.42;54.96
54306;BME280;66145;45.188;5.712;2022-12-29T09:52:20;99456.16;;;16.27;55.17
54306;BME280;66145;45.188;5.712;2022-12-29T09:57:20;99470.53;;;16.33;55.28
54306;BME280;66145;45.188;5.712;2022-12-29T09:59:48;99396.84;;;15.90;55.16
54306;BME280;66145;45.188;5.712;2022-12-29T10:02:36;99486.50;;;16.45;55.07
54306;BME280;66145;45.188;5.712;2022-12-29T10:05:04;99455.63;;;16.25;55.18
54306;BME280;66145;45.188;5.712;2022-12-29T10:07:46;99364.28;;;15.74;55.06
54306;BME280;66145;45.188;5.712;2022-12-29T10:10:19;99476.69;;;16.44;55.17
54306;BME280;66145;45.188;5.712;2022-12-29T10:20:59;99431.16;;;16.20;55.21
54306;BME280;66145;45.188;5.712;2022-12-29T10:23:47;99462.81;;;16.40;54.80
54306;BME280;66145;45.188;5.712;2022-12-29T10:26:17;99396.63;;;16.10;55.18
54306;BME280;66145;45.188;5.712;2022-12-29T10:28:56;99443.97;;;16.39;55.02
54306;BME280;66145;45.188;5.712;2022-12-29T10:31:25;99386.84;;;16.04;54.82
54306;BME280;66145;45.188;5.712;2022-12-29T10:33:57;99352.16;;;15.86;54.95
54306;BME280;66145;45.188;5.712;2022-12-29T10:36:35;99407.22;;;16.31;55.13
54306;BME280;66145;45.188;5.712;2022-12-29T10:39:23;99433.16;;;16.34;54.88
54306;BME280;66145;45.188;5.712;2022-12-29T10:42:15;99411.84;;;16.36;54.83
54306;BME280;66145;45.188;5.712;2022-12-29T10:44:44;99214.22;;;15.17;54.94
54306;BME280;66145;45.188;5.712;2022-12-29T10:47:18;99369.03;;;16.12;54.98
54306;BME280;66145;45.188;5.712;2022-12-29T10:49:47;99339.25;;;15.91;54.77
54306;BME280;66145;45.188;5.712;2022-12-29T10:52:16;99323.53;;;15.83;55.02
54306;BME280;66145;45.188;5.712;2022-12-29T10:54:56;99369.97;;;16.21;54.72
54306;BME280;66145;45.188;5.712;2022-12-29T10:57:32;99352.34;;;16.14;54.78
54306;BME280;66145;45.188;5.712;2022-12-29T10:59:58;99346.38;;;16.11;54.38
54306;BME280;66145;45.188;5.712;2022-12-29T11:02:37;99364.09;;;16.33;54.59
54306;BME280;66145;45.188;5.712;2022-12-29T11:05:18;99294.53;;;15.92;54.51
54306;BME280;66145;45.188;5.712;2022-12-29T11:07:47;99348.38;;;16.25;54.76
54306;BME280;66145;45.188;5.712;2022-12-29T11:10:30;99312.88;;;16.06;54.35
54306;BME280;66145;45.188;5.712;2022-12-29T11:13:05;99260.50;;;15.65;54.60
54306;BME280;66145;45.188;5.712;2022-12-29T11:15:46;99265.22;;;15.79;54.55
54306;BME280;66145;45.188;5.712;2022-12-29T11:20:47;99287.84;;;16.04;54.44
54306;BME280;66145;45.188;5.712;2022-12-29T11:26:21;99290.69;;;16.12;54.50
54306;BME280;66145;45.188;5.712;2022-12-29T11:29:23;99322.94;;;16.30;54.57
54306;BME280;66145;45.188;5.712;2022-12-29T11:31:58;99221.50;;;15.65;54.49
54306;BME280;66145;45.188;5.712;2022-12-29T11:34:31;99310.06;;;16.30;54.58
54306;BME280;66145;45.188;5.712;2022-12-29T11:37:45;99315.53;;;16.30;54.56
54306;BME280;66145;45.188;5.712;2022-12-29T11:42:23;99271.69;;;16.07;54.47
54306;BME280;66145;45.188;5.712;2022-12-29T11:44:53;99192.38;;;15.60;54.49
54306;BME280;66145;45.188;5.712;2022-12-29T11:47:28;99292.03;;;16.15;54.59
54306;BME280;66145;45.188;5.712;2022-12-29T11:49:57;99216.50;;;15.72;54.67
54306;BME280;66145;45.188;5.712;2022-12-29T11:52:26;99272.19;;;16.09;54.33
54306;BME280;66145;45.188;5.712;2022-12-29T11:54:54;99276.03;;;16.08;54.32
54306;BME280;66145;45.188;5.712;2022-12-29T11:57:22;99289.44;;;16.24;54.58
54306;BME280;66145;45.188;5.712;2022-12-29T11:59:53;99275.66;;;16.15;54.28
54306;BME280;66145;45.188;5.712;2022-12-29T12:02:40;99285.50;;;16.30;54.44
54306;BME280;66145;45.188;5.712;2022-12-29T12:05:35;99275.69;;;16.29;54.58
54306;BME280;66145;45.188;5.712;2022-12-29T12:08:14;99122.25;;;15.28;54.75
54306;BME280;66145;45.188;5.712;2022-12-29T12:10:46;99240.25;;;16.10;54.48
54306;BME280;66145;45.188;5.712;2022-12-29T12:16:12;99268.03;;;16.31;54.80
54306;BME280;66145;45.188;5.712;2022-12-29T12:18:53;99261.47;;;16.32;54.74
54306;BME280;66145;45.188;5.712;2022-12-29T12:21:29;99154.88;;;15.71;54.64
54306;BME280;66145;45.188;5.712;2022-12-29T12:26:36;99226.19;;;16.03;54.78
54306;BME280;66145;45.188;5.712;2022-12-29T12:29:12;99167.34;;;15.77;54.58
54306;BME280;66145;45.188;5.712;2022-12-29T12:31:47;99250.78;;;16.36;54.69
54306;BME280;66145;45.188;5.712;2022-12-29T12:34:23;99156.72;;;15.76;54.87
54306;BME280;66145;45.188;5.712;2022-12-29T12:39:27;99247.75;;;16.37;54.61
54306;BME280;66145;45.188;5.712;2022-12-29T12:50:39;99186.53;;;16.24;55.10
54306;BME280;66145;45.188;5.712;2022-12-29T12:59:55;99190.94;;;16.39;55.17
54306;BME280;66145;45.188;5.712;2022-12-29T13:19:02;99144.88;;;16.19;55.05
54306;BME280;66145;45.188;5.712;2022-12-29T13:24:32;99167.84;;;16.32;55.48
54306;BME280;66145;45.188;5.712;2022-12-29T13:27:10;99169.09;;;16.39;55.33
54306;BME280;66145;45.188;5.712;2022-12-29T13:38:39;99162.81;;;16.39;55.32
54306;BME280;66145;45.188;5.712;2022-12-29T13:41:19;99078.34;;;15.81;55.30
54306;BME280;66145;45.188;5.712;2022-12-29T13:43:47;99130.81;;;16.11;55.64
54306;BME280;66145;45.188;5.712;2022-12-29T13:46:21;99099.94;;;15.97;55.39
54306;BME280;66145;45.188;5.712;2022-12-29T13:49:08;99158.44;;;16.38;55.45
54306;BME280;66145;45.188;5.712;2022-12-29T13:51:49;99025.88;;;15.57;55.14
54306;BME280;66145;45.188;5.712;2022-12-29T13:57:10;99104.09;;;15.94;55.59
54306;BME280;66145;45.188;5.712;2022-12-29T13:59:57;99138.94;;;16.31;55.23
54306;BME280;66145;45.188;5.712;2022-12-29T14:07:44;99146.44;;;16.39;55.43
54306;BME280;66145;45.188;5.712;2022-12-29T14:13:03;99062.09;;;15.76;55.57
54306;BME280;66145;45.188;5.712;2022-12-29T14:15:29;99119.50;;;16.18;55.48
54306;BME280;66145;45.188;5.712;2022-12-29T14:20:46;99073.16;;;15.85;55.46
54306;BME280;66145;45.188;5.712;2022-12-29T14:25:58;99129.41;;;16.14;55.32
54306;BME280;66145;45.188;5.712;2022-12-29T14:28:30;99047.31;;;15.63;55.44
54306;BME280;66145;45.188;5.712;2022-12-29T14:30:58;99083.22;;;15.85;55.57
54306;BME280;66145;45.188;5.712;2022-12-29T14:33:25;99081.25;;;15.71;55.02
54306;BME280;66145;45.188;5.712;2022-12-29T14:35:52;99167.94;;;16.26;55.59
54306;BME280;66145;45.188;5.712;2022-12-29T14:38:27;99168.06;;;16.35;55.67
54306;BME280;66145;45.188;5.712;2022-12-29T14:41:26;99148.75;;;16.32;55.77
54306;BME280;66145;45.188;5.712;2022-12-29T14:43:59;99110.25;;;16.00;55.67
54306;BME280;66145;45.188;5.712;2022-12-29T14:49:15;99106.81;;;15.94;55.68
54306;BME280;66145;45.188;5.712;2022-12-29T14:51:42;99144.28;;;16.22;55.67
54306;BME280;66145;45.188;5.712;2022-12-29T14:57:04;99141.59;;;16.03;55.80
54306;BME280;66145;45.188;5.712;2022-12-29T14:59:32;99072.28;;;15.71;55.60
54306;BME280;66145;45.188;5.712;2022-12-29T15:02:01;99164.63;;;16.30;55.83
54306;BME280;66145;45.188;5.712;2022-12-29T15:04:33;99128.25;;;16.01;55.68
54306;BME280;66145;45.188;5.712;2022-12-29T15:07:00;99053.00;;;15.48;55.79
54306;BME280;66145;45.188;5.712;2022-12-29T15:09:42;99167.66;;;16.28;55.76
54306;BME280;66145;45.188;5.712;2022-12-29T15:12:21;99106.00;;;15.75;55.73
54306;BME280;66145;45.188;5.712;2022-12-29T15:14:54;99160.44;;;16.18;55.90
54306;BME280;66145;45.188;5.712;2022-12-29T15:17:34;99165.41;;;16.30;55.78